Time;durP1;ratioP1;P1;durP2;ratioP2;P2;SDS_P1;SDS_P2;PMS_P1;PMS_P2;Temp;Humidity;BMP_temperature;BMP_pressure;BME280_temperature;BME280_humidity;BME280_pressure;Samples;Min_cycle;Max_cycle;Signal;HPM_P1;HPM_P2
2022/11/04 17:00:40;;;;;;;30.23;17.07;;;20.50;63.00;;;;;;5152013;27;20555;-71
2022/11/04 17:03:19;;;;;;;32.10;22.27;;;20.10;57.10;;;;;;5152271;27;20293;-69
2022/11/04 17:05:48;;;;;;;46.20;32.37;;;18.90;55.30;;;;;;5151908;27;20225;-70
2022/11/04 17:08:16;;;;;;;29.17;19.27;;;18.00;56.70;;;;;;5151855;27;20188;-71
2022/11/04 17:10:45;;;;;;;42.90;23.73;;;17.30;58.00;;;;;;5152089;27;20181;-72
2022/11/04 17:13:13;;;;;;;38.30;20.60;;;16.70;59.10;;;;;;5141026;27;20672;-70
2022/11/04 17:15:43;;;;;;;18.73;11.67;;;16.30;60.40;;;;;;5144858;27;20226;-72
2022/11/04 17:18:15;;;;;;;29.03;18.23;;;16.00;61.50;;;;;;5131260;27;20244;-72
2022/11/04 17:20:47;;;;;;;25.73;14.10;;;15.70;62.50;;;;;;5130954;27;20195;-72
2022/11/04 17:23:17;;;;;;;21.40;14.80;;;15.40;63.30;;;;;;5131109;27;20232;-71
2022/11/04 17:25:46;;;;;;;16.57;11.20;;;15.20;64.00;;;;;;5130915;27;20191;-72
2022/11/04 17:28:14;;;;;;;18.77;10.40;;;15.10;64.70;;;;;;5133053;27;20664;-70
2022/11/04 17:30:45;;;;;;;14.83;10.60;;;14.90;65.30;;;;;;5145929;27;20225;-72
2022/11/04 17:33:13;;;;;;;18.50;11.97;;;14.80;66.50;;;;;;5151428;27;20571;-70
2022/11/04 17:35:44;;;;;;;15.63;11.73;;;14.60;67.20;;;;;;5151262;27;20199;-71
2022/11/04 17:38:12;;;;;;;23.60;14.80;;;14.50;67.80;;;;;;5151231;27;20191;-71
2022/11/04 17:48:56;;;;;;;22.03;14.03;;;14.20;70.50;;;;;;5143571;27;20202;-68
2022/11/04 17:51:25;;;;;;;34.83;21.63;;;14.20;71.40;;;;;;5130377;27;20606;-71
2022/11/04 17:53:53;;;;;;;31.33;19.47;;;14.10;71.50;;;;;;5130525;27;20195;-69
2022/11/04 17:56:23;;;;;;;28.30;16.80;;;14.20;72.10;;;;;;5130819;27;20201;-70
2022/11/04 17:58:53;;;;;;;17.30;12.50;;;14.10;72.50;;;;;;5134547;27;20234;-72
2022/11/04 18:01:23;;;;;;;24.63;14.10;;;14.10;73.00;;;;;;5129720;27;20205;-69
2022/11/04 18:03:52;;;;;;;33.17;20.33;;;14.00;73.80;;;;;;5130230;28;20191;-71
2022/11/04 18:06:21;;;;;;;46.30;27.67;;;14.00;74.30;;;;;;5130227;27;20236;-69
2022/11/04 18:08:52;;;;;;;61.63;29.57;;;13.90;74.60;;;;;;5130017;27;20209;-70
2022/11/04 18:14:08;;;;;;;59.27;32.43;;;13.90;75.60;;;;;;5114860;28;20298;-69
2022/11/04 18:16:45;;;;;;;62.10;33.27;;;13.90;76.10;;;;;;5115509;28;20199;-70
2022/11/04 18:19:14;;;;;;;64.67;33.63;;;13.90;76.40;;;;;;5116136;28;20222;-69
2022/11/04 18:21:42;;;;;;;53.13;28.07;;;13.80;77.00;;;;;;5115981;28;20198;-72
2022/11/04 18:24:12;;;;;;;70.70;41.90;;;13.80;77.60;;;;;;5116085;28;20196;-71
2022/11/04 18:26:40;;;;;;;68.93;38.57;;;13.80;77.90;;;;;;5115866;28;20227;-71
2022/11/04 18:29:13;;;;;;;44.67;27.13;;;13.80;78.10;;;;;;5129197;27;20222;-68
2022/11/04 18:31:45;;;;;;;49.70;30.80;;;13.70;78.40;;;;;;5135891;27;20205;-70
2022/11/04 18:34:18;;;;;;;134.80;61.77;;;13.70;79.10;;;;;;5135010;27;20573;-73
2022/11/04 18:36:47;;;;;;;64.50;38.10;;;13.70;80.00;;;;;;5127544;27;20258;-70
2022/11/04 18:39:17;;;;;;;52.70;29.50;;;13.60;80.60;;;;;;5132219;27;20219;-72
2022/11/04 18:41:47;;;;;;;60.87;33.83;;;13.60;81.00;;;;;;5136357;27;20225;-71
2022/11/04 18:44:17;;;;;;;55.97;34.33;;;13.50;81.60;;;;;;5136264;27;20195;-69
2022/11/04 18:46:48;;;;;;;55.73;32.97;;;13.50;82.10;;;;;;5135597;27;20200;-70
2022/11/04 18:49:19;;;;;;;67.53;40.73;;;13.50;82.40;;;;;;5136386;27;20330;-71
2022/11/04 18:51:47;;;;;;;56.93;34.73;;;13.50;82.70;;;;;;5136290;27;20225;-72
2022/11/04 18:54:16;;;;;;;58.67;34.73;;;13.50;82.90;;;;;;5134332;27;20695;-69
2022/11/04 18:56:44;;;;;;;45.67;29.57;;;13.50;83.00;;;;;;5136159;27;20205;-72
2022/11/04 18:59:15;;;;;;;58.70;35.10;;;13.50;83.10;;;;;;5135152;27;20228;-70
2022/11/04 19:01:44;;;;;;;25.10;17.93;;;13.50;83.10;;;;;;5135777;27;20202;-68
2022/11/04 19:04:14;;;;;;;36.37;23.30;;;13.40;83.00;;;;;;5135994;27;20200;-69
2022/11/04 19:06:44;;;;;;;79.37;45.57;;;13.40;82.70;;;;;;5133151;27;20228;-68
2022/11/04 19:09:15;;;;;;;83.67;45.90;;;13.40;82.70;;;;;;5134717;27;20191;-69
2022/11/04 19:14:52;;;;;;;48.73;29.20;;;13.40;83.50;;;;;;5120640;27;20256;-68
2022/11/04 19:17:24;;;;;;;39.43;24.47;;;13.40;83.40;;;;;;5130100;27;20206;-68
2022/11/04 19:19:53;;;;;;;42.53;26.97;;;13.30;83.50;;;;;;5134689;27;20214;-69
2022/11/04 19:22:22;;;;;;;36.43;24.07;;;13.30;84.00;;;;;;5126508;27;20203;-72
2022/11/04 19:24:51;;;;;;;36.77;24.87;;;13.30;84.30;;;;;;5131749;27;20210;-70
2022/11/04 19:27:21;;;;;;;29.20;21.17;;;13.30;84.10;;;;;;5122780;27;20201;-71
2022/11/04 19:29:50;;;;;;;50.27;26.77;;;13.30;84.00;;;;;;5121757;27;20198;-70
2022/11/04 19:32:18;;;;;;;42.67;24.73;;;13.30;84.00;;;;;;5115880;27;20192;-70
2022/11/04 19:34:47;;;;;;;41.97;27.17;;;13.20;84.10;;;;;;5134293;27;20201;-68
2022/11/04 19:37:17;;;;;;;44.40;27.10;;;13.30;84.20;;;;;;5133971;27;20284;-69
2022/11/04 19:39:45;;;;;;;42.47;25.13;;;13.30;84.30;;;;;;5133841;27;20233;-68
2022/11/04 19:45:01;;;;;;;25.07;15.47;;;13.30;84.30;;;;;;5120087;27;20207;-72
2022/11/04 19:47:29;;;;;;;41.73;22.77;;;13.30;84.40;;;;;;5132503;27;20194;-72
2022/11/04 19:49:57;;;;;;;28.27;16.97;;;13.30;84.10;;;;;;5133808;27;20664;-73
2022/11/04 19:52:27;;;;;;;30.67;18.30;;;13.30;84.30;;;;;;5134053;27;20280;-74
2022/11/04 19:54:55;;;;;;;29.70;15.90;;;13.30;84.20;;;;;;5128931;27;20238;-73
2022/11/04 19:57:24;;;;;;;21.50;13.50;;;13.20;84.10;;;;;;5133276;27;20277;-69
2022/11/04 19:59:52;;;;;;;24.73;14.80;;;13.20;84.00;;;;;;5133452;27;20222;-71
2022/11/04 20:02:21;;;;;;;17.70;10.90;;;13.20;84.30;;;;;;5133548;27;20671;-70
2022/11/04 20:04:50;;;;;;;19.67;10.90;;;13.20;84.00;;;;;;5115804;27;20199;-71
2022/11/04 20:07:18;;;;;;;26.17;14.13;;;13.10;84.10;;;;;;5127435;27;20191;-68
2022/11/04 20:09:59;;;;;;;19.90;12.17;;;13.10;84.80;;;;;;5123548;27;20218;-71
2022/11/04 20:15:16;;;;;;;16.13;11.27;;;13.20;84.80;;;;;;5133504;27;20193;-69
2022/11/04 20:17:45;;;;;;;18.10;12.20;;;13.10;84.90;;;;;;5133364;27;20191;-69
2022/11/04 20:20:16;;;;;;;21.70;12.70;;;13.10;85.10;;;;;;5132208;27;20247;-69
2022/11/04 20:22:44;;;;;;;31.03;16.93;;;13.00;85.30;;;;;;5125429;27;20255;-68
2022/11/04 20:25:14;;;;;;;23.93;15.13;;;13.10;85.50;;;;;;5120152;27;20562;-68
2022/11/04 20:27:42;;;;;;;27.37;16.57;;;13.10;85.40;;;;;;5112304;28;20722;-70
2022/11/04 20:30:13;;;;;;;22.93;14.53;;;13.10;85.70;;;;;;5127305;27;20215;-68
2022/11/04 20:32:42;;;;;;;24.57;16.23;;;13.10;85.60;;;;;;5131559;27;20202;-70
2022/11/04 20:35:11;;;;;;;24.00;15.33;;;13.10;85.50;;;;;;5133482;27;20652;-69
2022/11/04 20:37:39;;;;;;;25.40;15.50;;;13.20;85.90;;;;;;5132983;27;20299;-70
2022/11/04 20:40:09;;;;;;;23.70;15.97;;;13.20;85.80;;;;;;5133342;27;20197;-69
2022/11/04 20:42:46;;;;;;;25.37;14.97;;;13.20;86.10;;;;;;5132642;27;20204;-72
2022/11/04 20:45:15;;;;;;;37.60;20.93;;;13.10;86.00;;;;;;5133346;27;20601;-68
2022/11/04 20:47:44;;;;;;;56.07;29.40;;;13.20;85.90;;;;;;5131745;27;20191;-69
2022/11/04 20:50:12;;;;;;;49.73;27.83;;;13.10;86.00;;;;;;5133159;27;20206;-67
2022/11/04 20:52:40;;;;;;;40.87;24.53;;;13.10;86.40;;;;;;5133123;27;20202;-71
2022/11/04 20:55:10;;;;;;;36.90;21.43;;;13.20;86.50;;;;;;5132953;27;20195;-69
2022/11/04 20:57:40;;;;;;;38.17;21.60;;;13.10;86.50;;;;;;5133049;27;20204;-73
2022/11/04 21:00:10;;;;;;;37.30;22.83;;;13.20;86.30;;;;;;5132646;27;20230;-71
2022/11/04 21:02:38;;;;;;;40.60;22.13;;;13.20;86.30;;;;;;5128036;27;20202;-72
2022/11/04 21:05:07;;;;;;;40.17;24.43;;;13.20;86.50;;;;;;5116684;28;20224;-72
2022/11/04 21:07:35;;;;;;;31.53;19.53;;;13.20;86.40;;;;;;5131317;27;20209;-72
2022/11/04 21:10:04;;;;;;;24.17;16.90;;;13.30;86.30;;;;;;5132832;27;20194;-71
2022/11/04 21:12:33;;;;;;;25.00;16.07;;;13.30;85.60;;;;;;5132633;27;20679;-71
2022/11/04 21:15:02;;;;;;;23.70;14.83;;;13.30;85.90;;;;;;5132909;27;20194;-69
2022/11/04 21:17:31;;;;;;;24.30;14.43;;;13.30;85.70;;;;;;5132081;27;20201;-70
2022/11/04 21:20:05;;;;;;;20.77;13.80;;;13.30;85.90;;;;;;5132832;27;20202;-72
2022/11/04 21:22:34;;;;;;;20.80;13.70;;;13.20;86.30;;;;;;5132495;27;20223;-68
2022/11/04 21:25:02;;;;;;;21.07;13.43;;;13.20;86.40;;;;;;5132914;27;20217;-69
2022/11/04 21:27:30;;;;;;;26.33;14.50;;;13.20;86.80;;;;;;5126807;27;20202;-68
2022/11/04 21:29:59;;;;;;;21.23;13.90;;;13.10;86.90;;;;;;5121301;28;20198;-72
2022/11/04 21:32:28;;;;;;;30.33;17.20;;;13.20;86.90;;;;;;5132430;28;20189;-71
2022/11/04 21:34:57;;;;;;;34.07;18.30;;;13.20;86.90;;;;;;5113902;27;20206;-69
2022/11/04 21:37:25;;;;;;;30.47;17.43;;;13.20;86.90;;;;;;5132199;27;20206;-70
2022/11/04 21:39:53;;;;;;;27.00;17.60;;;13.20;86.90;;;;;;5132851;27;20190;-71
2022/11/04 21:42:22;;;;;;;28.30;16.70;;;13.20;86.90;;;;;;5125114;28;20221;-69
2022/11/04 21:44:50;;;;;;;25.67;16.10;;;13.20;87.10;;;;;;5121129;28;20214;-70
2022/11/04 21:47:18;;;;;;;22.20;12.63;;;13.20;87.30;;;;;;5132266;27;20195;-69
2022/11/04 21:49:49;;;;;;;26.07;16.83;;;13.20;87.30;;;;;;5136481;27;20244;-69
2022/11/04 21:52:17;;;;;;;20.33;13.77;;;13.20;87.50;;;;;;5136289;27;20201;-71
2022/11/04 21:54:46;;;;;;;20.87;12.83;;;13.20;87.80;;;;;;5118753;27;20210;-70
2022/11/04 21:57:14;;;;;;;23.33;14.50;;;13.20;87.90;;;;;;5134784;27;20201;-69
2022/11/04 21:59:43;;;;;;;27.63;16.57;;;13.20;88.00;;;;;;5130588;27;20224;-70
2022/11/04 22:02:11;;;;;;;34.70;18.03;;;13.30;87.60;;;;;;5115128;28;20242;-70
2022/11/04 22:04:39;;;;;;;28.77;16.73;;;13.20;87.30;;;;;;5116046;28;20301;-71
2022/11/04 22:07:09;;;;;;;28.03;14.10;;;13.20;87.30;;;;;;5116822;27;20199;-69
2022/11/04 22:09:38;;;;;;;23.70;14.90;;;13.30;87.40;;;;;;5119780;27;20206;-69
2022/11/04 22:12:06;;;;;;;22.93;14.13;;;13.30;87.60;;;;;;5133217;27;20218;-69
2022/11/04 22:14:34;;;;;;;21.33;13.37;;;13.30;87.40;;;;;;5135770;27;20190;-69
2022/11/04 22:17:03;;;;;;;22.50;13.17;;;13.30;87.40;;;;;;5133689;27;20207;-72
2022/11/04 22:19:31;;;;;;;21.47;12.50;;;13.30;87.50;;;;;;5135672;27;20204;-69
2022/11/04 22:22:00;;;;;;;19.07;13.53;;;13.20;87.40;;;;;;5135862;27;20690;-68
2022/11/04 22:24:29;;;;;;;24.77;14.03;;;13.20;87.70;;;;;;5135614;27;20202;-68
2022/11/04 22:26:58;;;;;;;21.33;13.47;;;13.20;88.00;;;;;;5135072;27;20205;-68
2022/11/04 22:29:26;;;;;;;26.00;12.90;;;13.20;88.10;;;;;;5135516;27;20680;-69
2022/11/04 22:31:54;;;;;;;21.37;14.60;;;13.20;88.00;;;;;;5135438;27;20201;-68
2022/11/04 22:34:23;;;;;;;21.20;13.53;;;13.20;87.90;;;;;;5135549;27;20224;-69
2022/11/04 22:36:52;;;;;;;21.97;13.40;;;13.20;88.10;;;;;;5135144;27;20190;-70
2022/11/04 22:39:20;;;;;;;23.93;14.27;;;13.20;88.10;;;;;;5135204;27;20202;-70
2022/11/04 22:41:50;;;;;;;21.90;14.20;;;13.30;88.10;;;;;;5135407;27;20221;-70
2022/11/04 22:44:18;;;;;;;20.57;11.90;;;13.20;88.30;;;;;;5135065;27;20202;-69
2022/11/04 22:46:46;;;;;;;24.50;14.27;;;13.20;88.40;;;;;;5131307;27;20206;-70
2022/11/04 22:49:15;;;;;;;18.73;12.63;;;13.20;87.80;;;;;;5118518;27;20289;-70
2022/11/04 22:51:43;;;;;;;22.03;14.20;;;13.20;87.90;;;;;;5114827;28;20206;-68
2022/11/04 22:54:11;;;;;;;22.20;12.90;;;13.20;88.10;;;;;;5113966;27;20206;-68
2022/11/04 22:56:40;;;;;;;22.80;12.13;;;13.20;88.10;;;;;;5114648;28;20207;-70
2022/11/04 22:59:10;;;;;;;18.30;11.87;;;13.20;88.10;;;;;;5116214;27;20235;-69
2022/11/04 23:01:39;;;;;;;20.83;14.93;;;13.20;88.00;;;;;;5119123;27;20236;-68
2022/11/04 23:04:10;;;;;;;23.67;14.57;;;13.20;87.80;;;;;;5127005;27;20210;-68
2022/11/04 23:06:39;;;;;;;22.50;13.83;;;13.20;87.50;;;;;;5121813;27;20194;-70
2022/11/04 23:09:07;;;;;;;20.70;13.37;;;13.20;87.70;;;;;;5129584;27;20674;-68
2022/11/04 23:20:07;;;;;;;20.77;12.50;;;13.20;87.90;;;;;;5057748;28;20216;-68
2022/11/04 23:25:21;;;;;;;19.63;12.50;;;13.20;87.90;;;;;;5051050;28;20204;-70
2022/11/04 23:30:41;;;;;;;22.63;14.33;;;13.10;88.70;;;;;;5055375;28;20732;-69
2022/11/04 23:33:12;;;;;;;19.37;12.63;;;13.20;88.40;;;;;;5065742;28;20220;-68
2022/11/04 23:38:30;;;;;;;16.83;11.40;;;13.20;88.30;;;;;;5070192;28;20201;-69
2022/11/04 23:43:45;;;;;;;17.90;11.97;;;13.10;88.60;;;;;;5070573;28;20332;-68
